Etusivu
METAR-TAF:

METAR-TAF

Lentoasemat :

Eppley Airfield

Omaha, Nebraska, Yhdysvallat

Leveyspiiri: 41-18-37N, Pituuspiiri: 095-53-57W, korkeus merenpinnasta: 299 m

Tämänhetkinen sää

Tämä raportti tehtiin 20 minuuttia sitten, kello 07.52 UTC
Tuuli 6 kn kaakosta
Lämpötila 3°C
Kosteus 65%
Ilmanpaine 1024 hPa
Näkyvyys: 16.1 km
selkeää

METAR: KOMA 060752Z 14006KT 10SM CLR 03/M03 A3024 RMK AO2 SLP245 T00331028

Aika: 02:12 (08:12 UTC)

Sääennuste

Tämä raportti tehtiin 2 tuntia ja 52 minuuttia sitten, kello 05.20 UTC
Ennuste voimassa 06. päivästä klo 06 UTC - 07. päivään klo 06 UTC
Tuuli 2 kn kaakosta
Näkyvyys: 10 km
selkeää
From 06. päivästä klo 1900 UTC
Tuuli 11 kn kaakosta
Näkyvyys: 10 km
selkeää
From 07. päivästä klo 0000 UTC
Tuuli 8 kn kaakosta
Näkyvyys: 10 km
selkeää

TAF: KOMA 060520Z 0606/0706 14002KT P6SM SKC FM061900 14011KT P6SM SKC FM070000 13008KT P6SM SKC

Säähavainnot ja -ennusteet yli 4000 lentoasemalta (METAR- ja TAF-raportit).

Käytössä olevat sääasemat on merkitty karttaan keltaisilla ja punaisilla pisteillä.

Aseta hiiri pisteen päälle nähdäksesi sääaseman nimen.

Klikkaa sitten nähdäksesi säähavainnot ja -ennusteet.

Kartan vaihtaminen: klikkaa mustalla rastilla varustettuja vihreitä pisteitä, niin voit zoomata sisään; viivalla varustettua vihreää pistettä, niin voit zoomata ulos tai vihreitä nuolia, niin pääset viereisille kartoille.


METAR-TAF: